sensor_id;sensor_type;location;lat;lon;timestamp;temperature;humidity
74488;DHT22;63019;51.080;13.642;2024-01-25T00:00:54;8.20;99.90
74488;DHT22;63019;51.080;13.642;2024-01-25T00:01:56;8.20;99.90
74488;DHT22;63019;51.080;13.642;2024-01-25T00:02:58;8.20;99.90
74488;DHT22;63019;51.080;13.642;2024-01-25T00:04:00;8.10;99.90
74488;DHT22;63019;51.080;13.642;2024-01-25T00:05:02;8.10;99.90
74488;DHT22;63019;51.080;13.642;2024-01-25T00:06:05;8.10;99.90
74488;DHT22;63019;51.080;13.642;2024-01-25T00:07:10;8.10;99.90
74488;DHT22;63019;51.080;13.642;2024-01-25T00:08:12;8.10;99.90
74488;DHT22;63019;51.080;13.642;2024-01-25T00:09:14;8.10;99.90
74488;DHT22;63019;51.080;13.642;2024-01-25T00:10:22;8.10;99.90
74488;DHT22;63019;51.080;13.642;2024-01-25T00:11:24;8.10;99.90
74488;DHT22;63019;51.080;13.642;2024-01-25T00:12:26;8.10;99.90
74488;DHT22;63019;51.080;13.642;2024-01-25T00:13:28;8.10;99.90
74488;DHT22;63019;51.080;13.642;2024-01-25T00:14:30;8.10;99.90
74488;DHT22;63019;51.080;13.642;2024-01-25T00:15:31;8.10;99.90
74488;DHT22;63019;51.080;13.642;2024-01-25T00:16:33;8.00;99.90
74488;DHT22;63019;51.080;13.642;2024-01-25T00:17:36;8.00;99.90
74488;DHT22;63019;51.080;13.642;2024-01-25T00:18:38;8.00;99.90
74488;DHT22;63019;51.080;13.642;2024-01-25T00:19:40;8.00;99.90
74488;DHT22;63019;51.080;13.642;2024-01-25T00:20:43;8.00;99.90
74488;DHT22;63019;51.080;13.642;2024-01-25T00:21:44;8.00;99.90
74488;DHT22;63019;51.080;13.642;2024-01-25T00:22:46;8.00;99.90
74488;DHT22;63019;51.080;13.642;2024-01-25T00:23:48;8.00;99.90
74488;DHT22;63019;51.080;13.642;2024-01-25T00:24:50;8.00;99.90
74488;DHT22;63019;51.080;13.642;2024-01-25T00:25:52;8.10;99.90
74488;DHT22;63019;51.080;13.642;2024-01-25T00:26:54;8.10;99.90
74488;DHT22;63019;51.080;13.642;2024-01-25T00:27:56;8.10;99.90
74488;DHT22;63019;51.080;13.642;2024-01-25T00:28:58;8.10;99.90
74488;DHT22;63019;51.080;13.642;2024-01-25T00:30:00;8.10;99.90
74488;DHT22;63019;51.080;13.642;2024-01-25T00:31:02;8.10;99.90
74488;DHT22;63019;51.080;13.642;2024-01-25T00:32:04;8.10;99.90
74488;DHT22;63019;51.080;13.642;2024-01-25T00:33:06;8.10;99.90
74488;DHT22;63019;51.080;13.642;2024-01-25T00:34:08;8.00;99.90
74488;DHT22;63019;51.080;13.642;2024-01-25T00:35:11;8.00;99.90
74488;DHT22;63019;51.080;13.642;2024-01-25T00:36:15;8.00;99.90
74488;DHT22;63019;51.080;13.642;2024-01-25T00:37:17;8.00;99.90
74488;DHT22;63019;51.080;13.642;2024-01-25T00:38:20;8.00;99.90
74488;DHT22;63019;51.080;13.642;2024-01-25T00:39:22;8.00;99.90
74488;DHT22;63019;51.080;13.642;2024-01-25T00:40:24;8.00;99.90
74488;DHT22;63019;51.080;13.642;2024-01-25T00:41:27;8.00;99.90
74488;DHT22;63019;51.080;13.642;2024-01-25T00:42:33;8.00;99.90
74488;DHT22;63019;51.080;13.642;2024-01-25T00:43:38;8.00;99.90
74488;DHT22;63019;51.080;13.642;2024-01-25T00:44:40;8.00;99.90
74488;DHT22;63019;51.080;13.642;2024-01-25T00:45:42;8.00;99.90
74488;DHT22;63019;51.080;13.642;2024-01-25T00:46:44;8.00;99.90
74488;DHT22;63019;51.080;13.642;2024-01-25T00:47:49;8.00;99.90
74488;DHT22;63019;51.080;13.642;2024-01-25T00:48:51;8.00;99.90
74488;DHT22;63019;51.080;13.642;2024-01-25T00:49:54;8.00;99.90
74488;DHT22;63019;51.080;13.642;2024-01-25T00:50:56;8.00;99.90
74488;DHT22;63019;51.080;13.642;2024-01-25T00:51:59;8.00;99.90
74488;DHT22;63019;51.080;13.642;2024-01-25T00:53:04;8.00;99.90
74488;DHT22;63019;51.080;13.642;2024-01-25T00:54:06;8.00;99.90
74488;DHT22;63019;51.080;13.642;2024-01-25T00:55:09;8.00;99.90
74488;DHT22;63019;51.080;13.642;2024-01-25T00:56:12;8.00;99.90
74488;DHT22;63019;51.080;13.642;2024-01-25T00:57:14;8.10;99.90
74488;DHT22;63019;51.080;13.642;2024-01-25T00:58:16;8.10;99.90
74488;DHT22;63019;51.080;13.642;2024-01-25T00:59:19;8.10;99.90
74488;DHT22;63019;51.080;13.642;2024-01-25T01:00:21;8.10;99.90
74488;DHT22;63019;51.080;13.642;2024-01-25T01:01:25;8.10;99.90
74488;DHT22;63019;51.080;13.642;2024-01-25T01:02:29;8.10;99.90
74488;DHT22;63019;51.080;13.642;2024-01-25T01:03:33;8.00;99.90
74488;DHT22;63019;51.080;13.642;2024-01-25T01:04:35;8.00;99.90
74488;DHT22;63019;51.080;13.642;2024-01-25T01:05:49;8.00;99.90
74488;DHT22;63019;51.080;13.642;2024-01-25T01:06:51;8.00;99.90
74488;DHT22;63019;51.080;13.642;2024-01-25T01:07:53;8.10;99.90
74488;DHT22;63019;51.080;13.642;2024-01-25T01:08:55;8.00;99.90
74488;DHT22;63019;51.080;13.642;2024-01-25T01:09:57;8.10;99.90
74488;DHT22;63019;51.080;13.642;2024-01-25T01:10:59;8.10;99.90
74488;DHT22;63019;51.080;13.642;2024-01-25T01:12:02;8.10;99.90
74488;DHT22;63019;51.080;13.642;2024-01-25T01:13:04;8.10;99.90
74488;DHT22;63019;51.080;13.642;2024-01-25T01:14:06;8.10;99.90
74488;DHT22;63019;51.080;13.642;2024-01-25T01:15:08;8.10;99.90
74488;DHT22;63019;51.080;13.642;2024-01-25T01:16:10;8.10;99.90
74488;DHT22;63019;51.080;13.642;2024-01-25T01:17:12;8.10;99.90
74488;DHT22;63019;51.080;13.642;2024-01-25T01:18:13;8.10;99.90
74488;DHT22;63019;51.080;13.642;2024-01-25T01:19:16;8.10;99.90
74488;DHT22;63019;51.080;13.642;2024-01-25T01:20:18;8.10;99.90
74488;DHT22;63019;51.080;13.642;2024-01-25T01:21:20;8.10;99.90
74488;DHT22;63019;51.080;13.642;2024-01-25T01:22:23;8.00;99.90
74488;DHT22;63019;51.080;13.642;2024-01-25T01:23:25;8.10;99.90
74488;DHT22;63019;51.080;13.642;2024-01-25T01:24:26;8.10;99.90
74488;DHT22;63019;51.080;13.642;2024-01-25T01:25:28;8.10;99.90
74488;DHT22;63019;51.080;13.642;2024-01-25T01:26:30;8.10;99.90
74488;DHT22;63019;51.080;13.642;2024-01-25T01:27:32;8.10;99.90
74488;DHT22;63019;51.080;13.642;2024-01-25T01:28:34;8.10;99.90
74488;DHT22;63019;51.080;13.642;2024-01-25T01:29:35;8.10;99.90
74488;DHT22;63019;51.080;13.642;2024-01-25T01:30:37;8.10;99.90
74488;DHT22;63019;51.080;13.642;2024-01-25T01:31:43;8.10;99.90
74488;DHT22;63019;51.080;13.642;2024-01-25T01:32:45;8.10;99.90
74488;DHT22;63019;51.080;13.642;2024-01-25T01:33:47;8.10;99.90
74488;DHT22;63019;51.080;13.642;2024-01-25T01:34:49;8.10;99.90
74488;DHT22;63019;51.080;13.642;2024-01-25T01:35:51;8.10;99.90
74488;DHT22;63019;51.080;13.642;2024-01-25T01:36:52;8.10;99.90
74488;DHT22;63019;51.080;13.642;2024-01-25T01:37:54;8.00;99.90
74488;DHT22;63019;51.080;13.642;2024-01-25T01:38:56;8.00;99.90
74488;DHT22;63019;51.080;13.642;2024-01-25T01:39:58;8.00;99.90
74488;DHT22;63019;51.080;13.642;2024-01-25T01:41:01;8.00;99.90
74488;DHT22;63019;51.080;13.642;2024-01-25T01:42:03;8.10;99.90
74488;DHT22;63019;51.080;13.642;2024-01-25T01:43:05;8.10;99.90
74488;DHT22;63019;51.080;13.642;2024-01-25T01:44:07;8.10;99.90
74488;DHT22;63019;51.080;13.642;2024-01-25T01:45:11;8.10;99.90
74488;DHT22;63019;51.080;13.642;2024-01-25T01:46:34;8.00;99.90
74488;DHT22;63019;51.080;13.642;2024-01-25T01:47:36;8.00;99.90
74488;DHT22;63019;51.080;13.642;2024-01-25T01:48:39;8.00;99.90
74488;DHT22;63019;51.080;13.642;2024-01-25T01:49:42;8.00;99.90
74488;DHT22;63019;51.080;13.642;2024-01-25T01:50:45;8.00;99.90
74488;DHT22;63019;51.080;13.642;2024-01-25T01:51:47;8.00;99.90
74488;DHT22;63019;51.080;13.642;2024-01-25T01:52:51;8.00;99.90
74488;DHT22;63019;51.080;13.642;2024-01-25T01:53:54;8.00;99.90
74488;DHT22;63019;51.080;13.642;2024-01-25T01:54:57;8.00;99.90
74488;DHT22;63019;51.080;13.642;2024-01-25T01:55:59;8.00;99.90
74488;DHT22;63019;51.080;13.642;2024-01-25T01:57:02;8.00;99.90
74488;DHT22;63019;51.080;13.642;2024-01-25T01:58:04;8.00;99.90
74488;DHT22;63019;51.080;13.642;2024-01-25T01:59:09;8.00;99.90
74488;DHT22;63019;51.080;13.642;2024-01-25T02:00:11;8.00;99.90
74488;DHT22;63019;51.080;13.642;2024-01-25T02:01:14;8.00;99.90
74488;DHT22;63019;51.080;13.642;2024-01-25T02:02:16;8.00;99.90
74488;DHT22;63019;51.080;13.642;2024-01-25T02:03:18;8.00;99.90
74488;DHT22;63019;51.080;13.642;2024-01-25T02:04:20;8.00;99.90
74488;DHT22;63019;51.080;13.642;2024-01-25T02:05:22;8.00;99.90
74488;DHT22;63019;51.080;13.642;2024-01-25T02:06:24;8.00;99.90
74488;DHT22;63019;51.080;13.642;2024-01-25T02:07:26;8.00;99.90
74488;DHT22;63019;51.080;13.642;2024-01-25T02:08:29;8.00;99.90
74488;DHT22;63019;51.080;13.642;2024-01-25T02:09:31;8.00;99.90
74488;DHT22;63019;51.080;13.642;2024-01-25T02:10:33;8.00;99.90
74488;DHT22;63019;51.080;13.642;2024-01-25T02:11:35;8.00;99.90
74488;DHT22;63019;51.080;13.642;2024-01-25T02:12:37;8.00;99.90
74488;DHT22;63019;51.080;13.642;2024-01-25T02:13:39;8.00;99.90
74488;DHT22;63019;51.080;13.642;2024-01-25T02:14:41;8.10;99.90
74488;DHT22;63019;51.080;13.642;2024-01-25T02:15:43;8.10;99.90
74488;DHT22;63019;51.080;13.642;2024-01-25T02:16:45;8.10;99.90
74488;DHT22;63019;51.080;13.642;2024-01-25T02:17:48;8.10;99.90
74488;DHT22;63019;51.080;13.642;2024-01-25T02:18:50;8.00;99.90
74488;DHT22;63019;51.080;13.642;2024-01-25T02:19:53;8.00;99.90
74488;DHT22;63019;51.080;13.642;2024-01-25T02:20:55;8.00;99.90
74488;DHT22;63019;51.080;13.642;2024-01-25T02:21:57;8.00;99.90
74488;DHT22;63019;51.080;13.642;2024-01-25T02:23:00;8.00;99.90
74488;DHT22;63019;51.080;13.642;2024-01-25T02:24:02;8.00;99.90
74488;DHT22;63019;51.080;13.642;2024-01-25T02:25:05;8.00;99.90
74488;DHT22;63019;51.080;13.642;2024-01-25T02:26:07;8.00;99.90
74488;DHT22;63019;51.080;13.642;2024-01-25T02:27:08;8.00;99.90
74488;DHT22;63019;51.080;13.642;2024-01-25T02:28:13;8.00;99.90
74488;DHT22;63019;51.080;13.642;2024-01-25T02:29:15;8.00;99.90
74488;DHT22;63019;51.080;13.642;2024-01-25T02:30:17;8.00;99.90
74488;DHT22;63019;51.080;13.642;2024-01-25T02:31:19;8.00;99.90
74488;DHT22;63019;51.080;13.642;2024-01-25T02:32:21;8.00;99.90
74488;DHT22;63019;51.080;13.642;2024-01-25T02:33:23;8.00;99.90
74488;DHT22;63019;51.080;13.642;2024-01-25T02:34:25;8.00;99.90
74488;DHT22;63019;51.080;13.642;2024-01-25T02:35:27;8.00;99.90
74488;DHT22;63019;51.080;13.642;2024-01-25T02:36:29;8.00;99.90
74488;DHT22;63019;51.080;13.642;2024-01-25T02:37:31;8.00;99.90
74488;DHT22;63019;51.080;13.642;2024-01-25T02:38:32;8.00;99.90
74488;DHT22;63019;51.080;13.642;2024-01-25T02:39:34;8.00;99.90
74488;DHT22;63019;51.080;13.642;2024-01-25T02:40:36;8.00;99.90
74488;DHT22;63019;51.080;13.642;2024-01-25T02:41:38;7.90;99.90
74488;DHT22;63019;51.080;13.642;2024-01-25T02:42:40;8.00;99.90
74488;DHT22;63019;51.080;13.642;2024-01-25T02:43:42;8.00;99.90
74488;DHT22;63019;51.080;13.642;2024-01-25T02:44:44;8.00;99.90
74488;DHT22;63019;51.080;13.642;2024-01-25T02:45:46;8.00;99.90
74488;DHT22;63019;51.080;13.642;2024-01-25T02:46:49;8.00;99.90
74488;DHT22;63019;51.080;13.642;2024-01-25T02:47:51;8.00;99.90
74488;DHT22;63019;51.080;13.642;2024-01-25T02:48:53;8.00;99.90
74488;DHT22;63019;51.080;13.642;2024-01-25T02:49:55;8.00;99.90
74488;DHT22;63019;51.080;13.642;2024-01-25T02:50:57;8.00;99.90
74488;DHT22;63019;51.080;13.642;2024-01-25T02:51:59;7.90;99.90
74488;DHT22;63019;51.080;13.642;2024-01-25T02:53:01;8.00;99.90
74488;DHT22;63019;51.080;13.642;2024-01-25T02:54:03;8.00;99.90
74488;DHT22;63019;51.080;13.642;2024-01-25T02:55:05;7.90;99.90
74488;DHT22;63019;51.080;13.642;2024-01-25T02:56:07;8.00;99.90
74488;DHT22;63019;51.080;13.642;2024-01-25T02:57:10;8.00;99.90
74488;DHT22;63019;51.080;13.642;2024-01-25T02:58:12;8.00;99.90
74488;DHT22;63019;51.080;13.642;2024-01-25T02:59:14;8.00;99.90
74488;DHT22;63019;51.080;13.642;2024-01-25T03:00:16;8.00;99.90
74488;DHT22;63019;51.080;13.642;2024-01-25T03:01:17;8.00;99.90
74488;DHT22;63019;51.080;13.642;2024-01-25T03:02:20;8.00;99.90
74488;DHT22;63019;51.080;13.642;2024-01-25T03:03:22;8.00;99.90
74488;DHT22;63019;51.080;13.642;2024-01-25T03:04:25;8.00;99.90
74488;DHT22;63019;51.080;13.642;2024-01-25T03:05:27;8.00;99.90
74488;DHT22;63019;51.080;13.642;2024-01-25T03:06:29;8.00;99.90
74488;DHT22;63019;51.080;13.642;2024-01-25T03:07:31;8.00;99.90
74488;DHT22;63019;51.080;13.642;2024-01-25T03:08:33;8.00;99.90
74488;DHT22;63019;51.080;13.642;2024-01-25T03:09:35;8.00;99.90
74488;DHT22;63019;51.080;13.642;2024-01-25T03:10:36;8.00;99.90
74488;DHT22;63019;51.080;13.642;2024-01-25T03:11:38;7.90;99.90
74488;DHT22;63019;51.080;13.642;2024-01-25T03:12:40;7.90;99.90
74488;DHT22;63019;51.080;13.642;2024-01-25T03:13:42;7.90;99.90
74488;DHT22;63019;51.080;13.642;2024-01-25T03:14:44;7.90;99.90
74488;DHT22;63019;51.080;13.642;2024-01-25T03:15:46;7.90;99.90
74488;DHT22;63019;51.080;13.642;2024-01-25T03:16:47;7.90;99.90
74488;DHT22;63019;51.080;13.642;2024-01-25T03:17:49;7.90;99.90
74488;DHT22;63019;51.080;13.642;2024-01-25T03:18:51;7.90;99.90
74488;DHT22;63019;51.080;13.642;2024-01-25T03:19:53;7.90;99.90
74488;DHT22;63019;51.080;13.642;2024-01-25T03:20:56;7.90;99.90
74488;DHT22;63019;51.080;13.642;2024-01-25T03:21:57;7.90;99.90
74488;DHT22;63019;51.080;13.642;2024-01-25T03:23:00;7.90;99.90
74488;DHT22;63019;51.080;13.642;2024-01-25T03:24:02;7.90;99.90
74488;DHT22;63019;51.080;13.642;2024-01-25T03:25:04;7.90;99.90
74488;DHT22;63019;51.080;13.642;2024-01-25T03:26:06;7.90;99.90
74488;DHT22;63019;51.080;13.642;2024-01-25T03:27:07;7.90;99.90
74488;DHT22;63019;51.080;13.642;2024-01-25T03:28:14;7.90;99.90
74488;DHT22;63019;51.080;13.642;2024-01-25T03:29:18;7.90;99.90
74488;DHT22;63019;51.080;13.642;2024-01-25T03:30:20;7.90;99.90
74488;DHT22;63019;51.080;13.642;2024-01-25T03:31:21;7.90;99.90
74488;DHT22;63019;51.080;13.642;2024-01-25T03:32:23;7.90;99.90
74488;DHT22;63019;51.080;13.642;2024-01-25T03:33:25;7.90;99.90
74488;DHT22;63019;51.080;13.642;2024-01-25T03:34:28;7.90;99.90
74488;DHT22;63019;51.080;13.642;2024-01-25T03:35:29;7.90;99.90
74488;DHT22;63019;51.080;13.642;2024-01-25T03:36:32;7.90;99.90
74488;DHT22;63019;51.080;13.642;2024-01-25T03:37:34;7.80;99.90
74488;DHT22;63019;51.080;13.642;2024-01-25T03:38:35;7.80;99.90
74488;DHT22;63019;51.080;13.642;2024-01-25T03:39:37;7.80;99.90
74488;DHT22;63019;51.080;13.642;2024-01-25T03:40:39;7.80;99.90
74488;DHT22;63019;51.080;13.642;2024-01-25T03:41:43;7.80;99.90
74488;DHT22;63019;51.080;13.642;2024-01-25T03:42:45;7.80;99.90
74488;DHT22;63019;51.080;13.642;2024-01-25T03:44:07;7.80;99.90
74488;DHT22;63019;51.080;13.642;2024-01-25T03:45:09;7.80;99.90
74488;DHT22;63019;51.080;13.642;2024-01-25T03:46:12;7.80;99.90
74488;DHT22;63019;51.080;13.642;2024-01-25T03:47:14;7.80;99.90
74488;DHT22;63019;51.080;13.642;2024-01-25T03:48:16;7.80;99.90
74488;DHT22;63019;51.080;13.642;2024-01-25T03:49:17;7.80;99.90
74488;DHT22;63019;51.080;13.642;2024-01-25T03:50:20;7.80;99.90
74488;DHT22;63019;51.080;13.642;2024-01-25T03:51:22;7.80;99.90
74488;DHT22;63019;51.080;13.642;2024-01-25T03:52:25;7.80;99.90
74488;DHT22;63019;51.080;13.642;2024-01-25T03:53:31;7.80;99.90
74488;DHT22;63019;51.080;13.642;2024-01-25T03:54:33;7.80;99.90
74488;DHT22;63019;51.080;13.642;2024-01-25T03:55:36;7.80;99.90
74488;DHT22;63019;51.080;13.642;2024-01-25T03:56:38;7.70;99.90
74488;DHT22;63019;51.080;13.642;2024-01-25T03:57:39;7.80;99.90
74488;DHT22;63019;51.080;13.642;2024-01-25T03:58:42;7.70;99.90
74488;DHT22;63019;51.080;13.642;2024-01-25T03:59:44;7.70;99.90
74488;DHT22;63019;51.080;13.642;2024-01-25T04:00:46;7.70;99.90
74488;DHT22;63019;51.080;13.642;2024-01-25T04:01:48;7.70;99.90
74488;DHT22;63019;51.080;13.642;2024-01-25T04:02:51;7.70;99.90
74488;DHT22;63019;51.080;13.642;2024-01-25T04:03:53;7.70;99.90
74488;DHT22;63019;51.080;13.642;2024-01-25T04:04:55;7.70;99.90
74488;DHT22;63019;51.080;13.642;2024-01-25T04:05:57;7.70;99.90
74488;DHT22;63019;51.080;13.642;2024-01-25T04:06:59;7.70;99.90
74488;DHT22;63019;51.080;13.642;2024-01-25T04:08:01;7.70;99.90
74488;DHT22;63019;51.080;13.642;2024-01-25T04:09:03;7.70;99.90
74488;DHT22;63019;51.080;13.642;2024-01-25T04:10:05;7.70;99.90
74488;DHT22;63019;51.080;13.642;2024-01-25T04:11:08;7.70;99.90
74488;DHT22;63019;51.080;13.642;2024-01-25T04:12:11;7.70;99.90
74488;DHT22;63019;51.080;13.642;2024-01-25T04:13:13;7.70;99.90
74488;DHT22;63019;51.080;13.642;2024-01-25T04:14:15;7.70;99.90
74488;DHT22;63019;51.080;13.642;2024-01-25T04:15:17;7.70;99.90
74488;DHT22;63019;51.080;13.642;2024-01-25T04:16:19;7.70;99.90
74488;DHT22;63019;51.080;13.642;2024-01-25T04:17:21;7.70;99.90
74488;DHT22;63019;51.080;13.642;2024-01-25T04:18:23;7.70;99.90
74488;DHT22;63019;51.080;13.642;2024-01-25T04:19:25;7.70;99.90
74488;DHT22;63019;51.080;13.642;2024-01-25T04:20:27;7.70;99.90
74488;DHT22;63019;51.080;13.642;2024-01-25T04:21:29;7.60;99.90
74488;DHT22;63019;51.080;13.642;2024-01-25T04:22:31;7.60;99.90
74488;DHT22;63019;51.080;13.642;2024-01-25T04:23:34;7.60;99.90
74488;DHT22;63019;51.080;13.642;2024-01-25T04:24:35;7.60;99.90
74488;DHT22;63019;51.080;13.642;2024-01-25T04:25:37;7.60;99.90
74488;DHT22;63019;51.080;13.642;2024-01-25T04:26:39;7.60;99.90
74488;DHT22;63019;51.080;13.642;2024-01-25T04:27:41;7.60;99.90
74488;DHT22;63019;51.080;13.642;2024-01-25T04:28:43;7.60;99.90
74488;DHT22;63019;51.080;13.642;2024-01-25T04:29:46;7.60;99.90
74488;DHT22;63019;51.080;13.642;2024-01-25T04:30:48;7.60;99.90
74488;DHT22;63019;51.080;13.642;2024-01-25T04:31:49;7.60;99.90
74488;DHT22;63019;51.080;13.642;2024-01-25T04:32:52;7.60;99.90
74488;DHT22;63019;51.080;13.642;2024-01-25T04:33:54;7.60;99.90
74488;DHT22;63019;51.080;13.642;2024-01-25T04:34:56;7.60;99.90
74488;DHT22;63019;51.080;13.642;2024-01-25T04:35:58;7.60;99.90
74488;DHT22;63019;51.080;13.642;2024-01-25T04:37:00;7.60;99.90
74488;DHT22;63019;51.080;13.642;2024-01-25T04:38:02;7.60;99.90
74488;DHT22;63019;51.080;13.642;2024-01-25T04:39:04;7.60;99.90
74488;DHT22;63019;51.080;13.642;2024-01-25T04:40:06;7.60;99.90
74488;DHT22;63019;51.080;13.642;2024-01-25T04:41:09;7.60;99.90
74488;DHT22;63019;51.080;13.642;2024-01-25T04:42:10;7.60;99.90
74488;DHT22;63019;51.080;13.642;2024-01-25T04:43:12;7.60;99.90
74488;DHT22;63019;51.080;13.642;2024-01-25T04:44:15;7.60;99.90
74488;DHT22;63019;51.080;13.642;2024-01-25T04:45:17;7.60;99.90
74488;DHT22;63019;51.080;13.642;2024-01-25T04:46:19;7.60;99.90
74488;DHT22;63019;51.080;13.642;2024-01-25T04:47:21;7.60;99.90
74488;DHT22;63019;51.080;13.642;2024-01-25T04:48:23;7.60;99.90
74488;DHT22;63019;51.080;13.642;2024-01-25T04:49:25;7.60;99.90
74488;DHT22;63019;51.080;13.642;2024-01-25T04:50:28;7.60;99.90
74488;DHT22;63019;51.080;13.642;2024-01-25T04:51:30;7.60;99.90
74488;DHT22;63019;51.080;13.642;2024-01-25T04:52:32;7.60;99.90
74488;DHT22;63019;51.080;13.642;2024-01-25T04:53:35;7.60;99.90
74488;DHT22;63019;51.080;13.642;2024-01-25T04:54:37;7.60;99.90
74488;DHT22;63019;51.080;13.642;2024-01-25T04:55:39;7.60;99.90
74488;DHT22;63019;51.080;13.642;2024-01-25T04:56:43;7.60;99.90
74488;DHT22;63019;51.080;13.642;2024-01-25T04:57:45;7.60;99.90
74488;DHT22;63019;51.080;13.642;2024-01-25T04:58:49;7.60;99.90
74488;DHT22;63019;51.080;13.642;2024-01-25T04:59:52;7.60;99.90
74488;DHT22;63019;51.080;13.642;2024-01-25T05:00:54;7.60;99.90
74488;DHT22;63019;51.080;13.642;2024-01-25T05:01:57;7.60;99.90
74488;DHT22;63019;51.080;13.642;2024-01-25T05:03:00;7.60;99.90
74488;DHT22;63019;51.080;13.642;2024-01-25T05:04:02;7.60;99.90
74488;DHT22;63019;51.080;13.642;2024-01-25T05:05:05;7.60;99.90
74488;DHT22;63019;51.080;13.642;2024-01-25T05:06:07;7.60;99.90
74488;DHT22;63019;51.080;13.642;2024-01-25T05:07:09;7.60;99.90
74488;DHT22;63019;51.080;13.642;2024-01-25T05:08:11;7.60;99.90
74488;DHT22;63019;51.080;13.642;2024-01-25T05:09:13;7.60;99.90
74488;DHT22;63019;51.080;13.642;2024-01-25T05:10:15;7.60;99.90
74488;DHT22;63019;51.080;13.642;2024-01-25T05:11:17;7.60;99.90
74488;DHT22;63019;51.080;13.642;2024-01-25T05:12:19;7.60;99.90
74488;DHT22;63019;51.080;13.642;2024-01-25T05:13:21;7.60;99.90
74488;DHT22;63019;51.080;13.642;2024-01-25T05:14:23;7.60;99.90
74488;DHT22;63019;51.080;13.642;2024-01-25T05:15:24;7.60;99.90
74488;DHT22;63019;51.080;13.642;2024-01-25T05:16:26;7.60;99.90
74488;DHT22;63019;51.080;13.642;2024-01-25T05:17:28;7.50;99.90
74488;DHT22;63019;51.080;13.642;2024-01-25T05:18:30;7.60;99.90
74488;DHT22;63019;51.080;13.642;2024-01-25T05:19:33;7.60;99.90
74488;DHT22;63019;51.080;13.642;2024-01-25T05:20:35;7.60;99.90
74488;DHT22;63019;51.080;13.642;2024-01-25T05:21:38;7.60;99.90
74488;DHT22;63019;51.080;13.642;2024-01-25T05:22:40;7.60;99.90
74488;DHT22;63019;51.080;13.642;2024-01-25T05:23:43;7.60;99.90
74488;DHT22;63019;51.080;13.642;2024-01-25T05:24:45;7.60;99.90
74488;DHT22;63019;51.080;13.642;2024-01-25T05:25:48;7.60;99.90
74488;DHT22;63019;51.080;13.642;2024-01-25T05:26:50;7.60;99.90
74488;DHT22;63019;51.080;13.642;2024-01-25T05:27:53;7.60;99.90
74488;DHT22;63019;51.080;13.642;2024-01-25T05:28:55;7.60;99.90
74488;DHT22;63019;51.080;13.642;2024-01-25T05:29:57;7.60;99.90
74488;DHT22;63019;51.080;13.642;2024-01-25T05:30:59;7.60;99.90
74488;DHT22;63019;51.080;13.642;2024-01-25T05:32:04;7.60;99.90
74488;DHT22;63019;51.080;13.642;2024-01-25T05:33:06;7.60;99.90
74488;DHT22;63019;51.080;13.642;2024-01-25T05:34:08;7.60;99.90
74488;DHT22;63019;51.080;13.642;2024-01-25T05:35:10;7.60;99.90
74488;DHT22;63019;51.080;13.642;2024-01-25T05:36:12;7.60;99.90
74488;DHT22;63019;51.080;13.642;2024-01-25T05:37:15;7.60;99.90
74488;DHT22;63019;51.080;13.642;2024-01-25T05:38:17;7.60;99.90
74488;DHT22;63019;51.080;13.642;2024-01-25T05:39:20;7.60;99.90
74488;DHT22;63019;51.080;13.642;2024-01-25T05:40:21;7.60;99.90
74488;DHT22;63019;51.080;13.642;2024-01-25T05:41:24;7.60;99.90
74488;DHT22;63019;51.080;13.642;2024-01-25T05:42:26;7.60;99.90
74488;DHT22;63019;51.080;13.642;2024-01-25T05:43:28;7.60;99.90
74488;DHT22;63019;51.080;13.642;2024-01-25T05:44:30;7.60;99.90
74488;DHT22;63019;51.080;13.642;2024-01-25T05:45:32;7.60;99.90
74488;DHT22;63019;51.080;13.642;2024-01-25T05:46:34;7.60;99.90
74488;DHT22;63019;51.080;13.642;2024-01-25T05:47:36;7.60;99.90
74488;DHT22;63019;51.080;13.642;2024-01-25T05:48:38;7.60;99.90
74488;DHT22;63019;51.080;13.642;2024-01-25T05:49:41;7.60;99.90
74488;DHT22;63019;51.080;13.642;2024-01-25T05:51:11;7.60;99.90
74488;DHT22;63019;51.080;13.642;2024-01-25T05:52:18;7.50;99.90
74488;DHT22;63019;51.080;13.642;2024-01-25T05:53:22;7.50;99.90
74488;DHT22;63019;51.080;13.642;2024-01-25T05:54:24;7.50;99.90
74488;DHT22;63019;51.080;13.642;2024-01-25T05:55:25;7.50;99.90
74488;DHT22;63019;51.080;13.642;2024-01-25T05:56:28;7.50;99.90
74488;DHT22;63019;51.080;13.642;2024-01-25T05:57:29;7.50;99.90
74488;DHT22;63019;51.080;13.642;2024-01-25T05:58:31;7.50;99.90
74488;DHT22;63019;51.080;13.642;2024-01-25T05:59:33;7.50;99.90
74488;DHT22;63019;51.080;13.642;2024-01-25T06:00:35;7.50;99.90
74488;DHT22;63019;51.080;13.642;2024-01-25T06:01:37;7.50;99.90
74488;DHT22;63019;51.080;13.642;2024-01-25T06:02:39;7.50;99.90
74488;DHT22;63019;51.080;13.642;2024-01-25T06:03:41;7.50;99.90
74488;DHT22;63019;51.080;13.642;2024-01-25T06:04:43;7.50;99.90
74488;DHT22;63019;51.080;13.642;2024-01-25T06:05:45;7.50;99.90
74488;DHT22;63019;51.080;13.642;2024-01-25T06:06:47;7.50;99.90
74488;DHT22;63019;51.080;13.642;2024-01-25T06:07:50;7.50;99.90
74488;DHT22;63019;51.080;13.642;2024-01-25T06:08:52;7.50;99.90
74488;DHT22;63019;51.080;13.642;2024-01-25T06:10:11;7.40;99.90
74488;DHT22;63019;51.080;13.642;2024-01-25T06:11:13;7.40;99.90
74488;DHT22;63019;51.080;13.642;2024-01-25T06:12:15;7.40;99.90
74488;DHT22;63019;51.080;13.642;2024-01-25T06:13:20;7.40;99.90
74488;DHT22;63019;51.080;13.642;2024-01-25T06:14:22;7.40;99.90
74488;DHT22;63019;51.080;13.642;2024-01-25T06:15:24;7.40;99.90
74488;DHT22;63019;51.080;13.642;2024-01-25T06:16:25;7.40;99.90
74488;DHT22;63019;51.080;13.642;2024-01-25T06:17:27;7.40;99.90
74488;DHT22;63019;51.080;13.642;2024-01-25T06:18:29;7.40;99.90
74488;DHT22;63019;51.080;13.642;2024-01-25T06:19:31;7.40;99.90
74488;DHT22;63019;51.080;13.642;2024-01-25T06:20:35;7.40;99.90
74488;DHT22;63019;51.080;13.642;2024-01-25T06:21:37;7.40;99.90
74488;DHT22;63019;51.080;13.642;2024-01-25T06:22:39;7.40;99.90
74488;DHT22;63019;51.080;13.642;2024-01-25T06:23:41;7.30;99.90
74488;DHT22;63019;51.080;13.642;2024-01-25T06:24:43;7.30;99.90
74488;DHT22;63019;51.080;13.642;2024-01-25T06:25:45;7.30;99.90
74488;DHT22;63019;51.080;13.642;2024-01-25T06:26:47;7.30;99.90
74488;DHT22;63019;51.080;13.642;2024-01-25T06:27:49;7.30;99.90
74488;DHT22;63019;51.080;13.642;2024-01-25T06:28:51;7.30;99.90
74488;DHT22;63019;51.080;13.642;2024-01-25T06:29:53;7.30;99.90
74488;DHT22;63019;51.080;13.642;2024-01-25T06:30:54;7.30;99.90
74488;DHT22;63019;51.080;13.642;2024-01-25T06:31:57;7.30;99.90
74488;DHT22;63019;51.080;13.642;2024-01-25T06:32:58;7.20;99.90
74488;DHT22;63019;51.080;13.642;2024-01-25T06:34:01;7.20;99.90
74488;DHT22;63019;51.080;13.642;2024-01-25T06:35:03;7.20;99.90